createdAt,value
2019-03-28T00:00:59.477Z,98219.69
2019-03-28T00:03:25.944Z,98223.17
2019-03-28T00:05:52.429Z,98225.33
2019-03-28T00:08:19.115Z,98213.75
2019-03-28T00:10:45.429Z,98216.45
2019-03-28T00:13:11.970Z,98215.06
2019-03-28T00:15:38.552Z,98216.66
2019-03-28T00:18:05.056Z,98215.80
2019-03-28T00:20:31.435Z,98210.70
2019-03-28T00:23:05.747Z,98213.41
2019-03-28T00:25:32.122Z,98208.59
2019-03-28T00:27:58.822Z,98215.31
2019-03-28T00:30:25.202Z,98215.08
2019-03-28T00:32:52.330Z,98218.83
2019-03-28T00:35:19.987Z,98210.78
2019-03-28T00:37:46.482Z,98209.98
2019-03-28T00:40:13.040Z,98207.31
2019-03-28T00:42:39.429Z,98208.93
2019-03-28T00:45:07.246Z,98206.54
2019-03-28T00:47:34.072Z,98204.11
2019-03-28T00:50:00.446Z,98200.58
2019-03-28T00:52:26.750Z,98200.57
2019-03-28T00:54:53.339Z,98209.20
2019-03-28T00:57:19.778Z,98207.56
2019-03-28T00:59:46.285Z,98207.59
2019-03-28T01:02:12.771Z,98202.48
2019-03-28T01:04:39.399Z,98212.73
2019-03-28T01:07:05.778Z,98206.54
2019-03-28T01:09:32.359Z,98207.34
2019-03-28T01:11:58.775Z,98215.66
2019-03-28T01:14:25.282Z,98210.84
2019-03-28T01:16:51.762Z,98213.00
2019-03-28T01:19:18.162Z,98207.36
2019-03-28T01:21:44.849Z,98203.05
2019-03-28T01:24:11.438Z,98202.77
2019-03-28T01:26:37.929Z,98205.45
2019-03-28T01:29:04.302Z,98186.08
2019-03-28T01:31:30.718Z,98191.45
2019-03-28T01:33:57.419Z,98186.08
2019-03-28T01:36:23.871Z,98186.91
2019-03-28T01:38:50.259Z,98175.87
2019-03-28T01:41:16.732Z,98178.83
2019-03-28T01:43:43.208Z,98185.32
2019-03-28T01:46:09.688Z,98183.70
2019-03-28T01:48:36.106Z,98186.41
2019-03-28T01:51:02.730Z,98187.74
2019-03-28T01:53:29.243Z,98183.70
2019-03-28T01:55:55.846Z,98187.73
2019-03-28T01:58:22.563Z,98182.64
2019-03-28T02:00:49.111Z,98180.50
2019-03-28T02:03:15.617Z,98177.80
2019-03-28T02:05:42.296Z,98179.43
2019-03-28T02:08:08.814Z,98178.63
2019-03-28T02:10:35.386Z,98180.53
2019-03-28T02:13:02.010Z,98179.73
2019-03-28T02:15:28.733Z,98181.31
2019-03-28T02:17:55.412Z,98182.67
2019-03-28T02:20:21.835Z,98175.91
2019-03-28T02:22:48.440Z,98173.49
2019-03-28T02:25:14.953Z,98176.70
2019-03-28T02:27:41.441Z,98171.05
2019-03-28T02:30:08.669Z,98164.87
2019-03-28T02:32:35.039Z,98164.08
2019-03-28T02:35:03.190Z,98170.25
2019-03-28T02:37:30.517Z,98170.25
2019-03-28T02:39:57.147Z,98169.95
2019-03-28T02:42:23.763Z,98173.41
2019-03-28T02:44:50.438Z,98170.20
2019-03-28T02:47:17.021Z,98169.11
2019-03-28T02:49:43.445Z,98170.98
2019-03-28T02:52:10.101Z,98165.59
2019-03-28T02:54:37.051Z,98162.61
2019-03-28T02:57:04.128Z,98160.70
2019-03-28T02:59:30.539Z,98165.28
2019-03-28T03:01:57.300Z,98157.48
2019-03-28T03:04:24.081Z,98166.38
2019-03-28T03:06:50.988Z,98163.70
2019-03-28T03:09:17.359Z,98167.47
2019-03-28T03:11:44.232Z,98163.69
2019-03-28T03:14:11.886Z,98161.83
2019-03-28T03:16:38.878Z,98154.33
2019-03-28T03:19:05.475Z,98151.64
2019-03-28T03:21:31.994Z,98161.06
2019-03-28T03:23:58.818Z,98162.69
2019-03-28T03:26:25.295Z,98154.90
2019-03-28T03:28:51.713Z,98163.01
2019-03-28T03:31:21.228Z,98163.28
2019-03-28T03:33:46.858Z,98164.63
2019-03-28T03:36:13.970Z,98166.01
2019-03-28T03:38:40.722Z,98171.10
2019-03-28T03:41:07.523Z,98170.03
2019-03-28T03:43:34.020Z,98166.53
2019-03-28T03:46:01.660Z,98162.78
2019-03-28T03:48:28.672Z,98163.30
2019-03-28T03:50:55.396Z,98156.03
2019-03-28T03:53:21.671Z,98157.94
2019-03-28T03:55:48.128Z,98157.13
2019-03-28T03:58:16.853Z,98162.51
2019-03-28T04:00:43.203Z,98159.80
2019-03-28T04:03:09.938Z,98158.42
2019-03-28T04:05:36.785Z,98152.23
2019-03-28T04:08:04.131Z,98156.55
2019-03-28T04:10:30.974Z,98160.85
2019-03-28T04:12:57.631Z,98164.91
2019-03-28T04:15:24.761Z,98160.08
2019-03-28T04:17:51.500Z,98153.62
2019-03-28T04:20:18.242Z,98159.28
2019-03-28T04:22:45.393Z,98159.55
2019-03-28T04:25:12.395Z,98154.95
2019-03-28T04:27:39.898Z,98150.66
2019-03-28T04:30:08.195Z,98143.66
2019-03-28T04:32:35.016Z,98147.44
2019-03-28T04:35:05.502Z,98143.14
2019-03-28T04:37:32.632Z,98149.58
2019-03-28T04:39:59.411Z,98153.09
2019-03-28T04:42:26.788Z,98144.22
2019-03-28T04:44:54.654Z,98150.40
2019-03-28T04:47:21.288Z,98153.92
2019-03-28T04:49:47.825Z,98153.63
2019-03-28T04:52:14.365Z,98153.63
2019-03-28T04:54:40.898Z,98151.48
2019-03-28T04:57:07.540Z,98157.93
2019-03-28T04:59:34.682Z,98158.76
2019-03-28T05:02:03.651Z,98160.89
2019-03-28T05:04:29.906Z,98154.17
2019-03-28T05:06:56.644Z,98163.84
2019-03-28T05:09:23.491Z,98162.48
2019-03-28T05:11:50.436Z,98161.97
2019-03-28T05:14:17.073Z,98164.41
2019-03-28T05:16:43.914Z,98163.84
2019-03-28T05:19:10.588Z,98166.83
2019-03-28T05:21:37.292Z,98169.81
2019-03-28T05:24:03.829Z,98171.94
2019-03-28T05:26:30.570Z,98170.87
2019-03-28T05:28:58.145Z,98167.12
2019-03-28T05:31:25.584Z,98168.19
2019-03-28T05:33:52.629Z,98176.83
2019-03-28T05:36:19.188Z,98171.44
2019-03-28T05:38:45.904Z,98171.72
2019-03-28T05:41:12.444Z,98161.73
2019-03-28T05:43:38.978Z,98168.20
2019-03-28T05:46:05.615Z,98172.80
2019-03-28T05:48:32.253Z,98171.44
2019-03-28T05:50:59.093Z,98171.47
2019-03-28T05:53:25.650Z,98171.18
2019-03-28T05:55:51.951Z,98165.27
2019-03-28T05:58:18.357Z,98172.52
2019-03-28T06:00:44.754Z,98164.17
2019-03-28T06:03:11.207Z,98163.61
2019-03-28T06:05:37.579Z,98163.36
2019-03-28T06:08:05.885Z,98170.63
2019-03-28T06:10:32.357Z,98172.78
2019-03-28T06:12:58.883Z,98176.02
2019-03-28T06:15:25.544Z,98176.84
2019-03-28T06:17:51.927Z,98181.13
2019-03-28T06:20:19.731Z,98176.83
2019-03-28T06:22:46.599Z,98175.19
2019-03-28T06:25:13.325Z,98183.02
2019-03-28T06:27:39.932Z,98190.28
2019-03-28T06:30:08.954Z,98188.13
2019-03-28T06:32:42.733Z,98186.48
2019-03-28T06:35:04.651Z,98188.65
2019-03-28T06:37:31.015Z,98185.95
2019-03-28T06:39:57.431Z,98181.61
2019-03-28T06:42:23.818Z,98182.42
2019-03-28T06:44:50.932Z,98187.02
2019-03-28T06:47:17.348Z,98190.77
2019-03-28T06:49:43.869Z,98189.96
2019-03-28T06:52:10.251Z,98191.59
2019-03-28T06:54:36.643Z,98190.48
2019-03-28T06:57:03.138Z,98181.58
2019-03-28T06:59:37.363Z,98183.70
2019-03-28T07:01:57.918Z,98185.33
2019-03-28T07:04:24.407Z,98179.91
2019-03-28T07:06:50.976Z,98185.84
2019-03-28T07:09:18.295Z,98184.47
2019-03-28T07:11:45.054Z,98175.83
2019-03-28T07:14:11.600Z,98176.10
2019-03-28T07:16:38.634Z,98174.75
2019-03-28T07:19:05.117Z,98172.83
2019-03-28T07:21:31.602Z,98160.88
2019-03-28T07:23:58.259Z,98167.86
2019-03-28T07:26:24.919Z,98157.02
2019-03-28T07:28:54.215Z,98161.28
2019-03-28T07:31:19.823Z,98170.10
2019-03-28T07:33:46.494Z,98181.34
2019-03-28T07:36:13.548Z,98173.13
2019-03-28T07:38:40.122Z,98182.51
2019-03-28T07:41:06.772Z,98184.09
2019-03-28T07:43:33.223Z,98180.56
2019-03-28T07:45:59.944Z,98188.95
2019-03-28T07:48:26.414Z,98184.94
2019-03-28T07:50:53.147Z,98185.77
2019-03-28T07:53:19.960Z,98184.16
2019-03-28T07:55:47.716Z,98180.41
2019-03-28T07:58:14.454Z,98182.62
2019-03-28T08:00:41.062Z,98182.36
2019-03-28T08:03:07.603Z,98182.90
2019-03-28T08:05:34.067Z,98192.85
2019-03-28T08:08:00.773Z,98186.04
2019-03-28T08:10:27.322Z,98184.36
2019-03-28T08:12:53.943Z,98189.16
2019-03-28T08:15:21.451Z,98188.05
2019-03-28T08:17:48.250Z,98189.34
2019-03-28T08:20:15.201Z,98189.83
2019-03-28T08:22:41.714Z,98193.02
2019-03-28T08:25:11.687Z,98198.94
2019-03-28T08:27:37.618Z,98202.17
2019-03-28T08:30:18.125Z,98206.78
2019-03-28T08:32:39.668Z,98205.38
2019-03-28T08:35:07.652Z,98207.00
2019-03-28T08:37:35.827Z,98203.20
2019-03-28T08:40:05.732Z,98212.94
2019-03-28T08:42:32.271Z,98202.38
2019-03-28T08:44:58.757Z,98205.38
2019-03-28T08:47:25.173Z,98202.09
2019-03-28T08:49:51.552Z,98206.94
2019-03-28T08:52:18.111Z,98207.73
2019-03-28T08:54:44.556Z,98207.67
2019-03-28T08:57:11.147Z,98204.08
2019-03-28T08:59:43.918Z,98199.41
2019-03-28T09:02:28.279Z,98206.15
2019-03-28T09:04:54.690Z,98202.55
2019-03-28T09:07:21.163Z,98203.27
2019-03-28T09:09:47.699Z,98211.80
2019-03-28T09:12:14.430Z,98207.09
2019-03-28T09:17:25.992Z,98214.09
2019-03-28T09:19:52.626Z,98215.81
2019-03-28T09:22:19.097Z,98211.64
2019-03-28T09:24:45.584Z,98211.59
2019-03-28T09:27:12.309Z,98218.02
2019-03-28T09:29:38.714Z,98223.88
2019-03-28T09:32:05.306Z,98222.77
2019-03-28T09:34:31.807Z,98225.47
2019-03-28T09:36:58.635Z,98227.92
2019-03-28T09:39:25.169Z,98222.24
2019-03-28T09:41:51.734Z,98223.86
2019-03-28T09:44:18.465Z,98224.12
2019-03-28T09:46:45.123Z,98231.97
2019-03-28T09:49:11.559Z,98230.38
2019-03-28T09:51:38.075Z,98226.59
2019-03-28T09:54:04.550Z,98227.14
2019-03-28T09:56:30.941Z,98226.91
2019-03-28T09:59:00.252Z,98228.81
2019-03-28T10:01:25.764Z,98225.30
2019-03-28T10:03:52.255Z,98231.81
2019-03-28T10:06:19.023Z,98229.62
2019-03-28T10:08:45.410Z,98230.38
2019-03-28T10:11:11.804Z,98220.57
2019-03-28T10:13:38.427Z,98222.56
2019-03-28T10:16:05.041Z,98208.57
2019-03-28T10:18:31.798Z,98211.91
2019-03-28T10:20:58.536Z,98203.65
2019-03-28T10:23:25.351Z,98194.83
2019-03-28T10:25:52.152Z,98193.31
2019-03-28T10:28:18.524Z,98185.00
2019-03-28T10:30:45.230Z,98190.73
2019-03-28T10:33:11.950Z,98189.80
2019-03-28T10:35:38.608Z,98163.55
2019-03-28T10:38:05.318Z,98163.55
2019-03-28T10:40:31.979Z,98181.61
2019-03-28T10:43:00.360Z,98183.74
2019-03-28T10:45:27.407Z,98194.52
2019-03-28T10:47:53.949Z,98193.68
2019-03-28T10:50:20.578Z,98195.73
2019-03-28T10:52:48.558Z,98197.70
2019-03-28T10:55:15.084Z,98198.25
2019-03-28T10:57:41.516Z,98187.94
2019-03-28T11:00:09.013Z,98194.41
2019-03-28T11:02:35.917Z,98194.41
2019-03-28T11:05:04.501Z,98185.48
2019-03-28T11:07:31.140Z,98194.57
2019-03-28T11:09:57.779Z,98195.80
2019-03-28T11:12:24.417Z,98204.38
2019-03-28T11:14:51.257Z,98202.88
2019-03-28T11:17:17.689Z,98208.70
2019-03-28T11:19:44.330Z,98203.63
2019-03-28T11:22:11.374Z,98204.00
2019-03-28T11:24:37.909Z,98204.20
2019-03-28T11:27:04.752Z,98202.53
2019-03-28T11:29:31.389Z,98199.48
2019-03-28T11:31:57.822Z,98195.73
2019-03-28T11:34:24.460Z,98197.64
2019-03-28T11:36:51.307Z,98193.01
2019-03-28T11:39:18.351Z,98195.34
2019-03-28T11:41:45.351Z,98185.93
2019-03-28T11:44:11.933Z,98190.88
2019-03-28T11:46:38.589Z,98194.70
2019-03-28T11:49:05.135Z,98189.87
2019-03-28T11:51:31.948Z,98188.36
2019-03-28T11:53:58.486Z,98189.52
2019-03-28T11:56:25.122Z,98190.80
2019-03-28T11:58:51.554Z,98189.59
2019-03-28T12:01:18.192Z,98183.22
2019-03-28T12:03:45.037Z,98184.99
2019-03-28T12:06:11.718Z,98177.56
2019-03-28T12:16:26.691Z,98164.98
2019-03-28T12:18:54.663Z,98170.59
2019-03-28T12:21:21.195Z,98171.27
2019-03-28T12:23:47.900Z,98166.28
2019-03-28T12:26:14.580Z,98166.46
2019-03-28T12:28:41.212Z,98166.46
2019-03-28T12:31:07.643Z,98166.22
2019-03-28T12:33:34.224Z,98165.66
2019-03-28T12:36:00.712Z,98156.42
2019-03-28T12:38:27.251Z,98158.28
2019-03-28T12:40:53.785Z,98156.20
2019-03-28T12:43:20.298Z,98159.19
2019-03-28T12:45:46.958Z,98153.74
2019-03-28T12:48:13.782Z,98151.89
2019-03-28T12:50:40.540Z,98149.00
2019-03-28T12:53:07.179Z,98149.98
2019-03-28T12:55:33.714Z,98148.86
2019-03-28T12:58:00.269Z,98152.46
2019-03-28T13:00:33.338Z,98155.75
2019-03-28T13:03:00.078Z,98151.73
2019-03-28T13:05:26.614Z,98156.48
2019-03-28T13:07:53.046Z,98159.59
2019-03-28T13:10:19.788Z,98152.69
2019-03-28T13:12:46.531Z,98161.91
2019-03-28T13:15:13.613Z,98161.96
2019-03-28T13:17:40.323Z,98156.59
2019-03-28T13:20:08.796Z,98159.84
2019-03-28T13:22:35.539Z,98160.62
2019-03-28T13:25:04.082Z,98164.13
2019-03-28T13:27:30.551Z,98169.48
2019-03-28T13:29:57.191Z,98164.74
2019-03-28T13:32:23.625Z,98165.67
2019-03-28T13:34:50.046Z,98170.97
2019-03-28T13:37:16.679Z,98174.61
2019-03-28T13:39:43.435Z,98175.02
2019-03-28T13:42:10.076Z,98173.48
2019-03-28T13:44:36.605Z,98173.13
2019-03-28T13:47:03.449Z,98163.95
2019-03-28T13:49:30.066Z,98167.84
2019-03-28T13:51:56.521Z,98169.09
2019-03-28T13:54:23.358Z,98163.54
2019-03-28T13:56:50.102Z,98172.06
2019-03-28T13:59:16.435Z,98169.73
2019-03-28T14:01:42.983Z,98165.23
2019-03-28T14:04:10.423Z,98167.76
2019-03-28T14:06:36.947Z,98169.73
2019-03-28T14:09:05.446Z,98147.97
2019-03-28T14:11:31.874Z,98147.97
2019-03-28T14:13:58.306Z,98176.30
2019-03-28T14:16:24.840Z,98177.80
2019-03-28T14:18:51.258Z,98174.62
2019-03-28T14:21:18.117Z,98170.59
2019-03-28T14:23:44.666Z,98174.55
2019-03-28T14:26:11.188Z,98170.59
2019-03-28T14:28:37.723Z,98170.39
2019-03-28T14:31:04.360Z,98175.66
2019-03-28T14:33:31.102Z,98172.98
2019-03-28T14:35:57.637Z,98173.03
2019-03-28T14:38:24.379Z,98173.92
2019-03-28T14:40:50.912Z,98166.62
2019-03-28T14:43:17.667Z,98173.47
2019-03-28T14:45:44.187Z,98174.90
2019-03-28T14:48:10.658Z,98175.50
2019-03-28T14:50:38.756Z,98180.43
2019-03-28T14:53:05.431Z,98178.89
2019-03-28T14:55:32.702Z,98177.33
2019-03-28T14:58:00.674Z,98183.14
2019-03-28T15:00:49.541Z,98183.48
2019-03-28T15:03:25.626Z,98184.89
2019-03-28T15:05:46.069Z,98185.77
2019-03-28T15:08:12.702Z,98183.30
2019-03-28T15:10:39.236Z,98182.50
2019-03-28T15:13:05.811Z,98179.87
2019-03-28T15:15:32.514Z,98183.62
2019-03-28T15:17:59.048Z,98177.33
2019-03-28T15:20:27.485Z,98179.39
2019-03-28T15:22:54.166Z,98179.21
2019-03-28T15:25:20.600Z,98175.17
2019-03-28T15:27:47.564Z,98181.67
2019-03-28T15:30:14.898Z,98186.23
2019-03-28T15:32:41.491Z,98188.65
2019-03-28T15:35:08.177Z,98183.84
2019-03-28T15:37:34.670Z,98185.79
2019-03-28T15:40:01.346Z,98196.14
2019-03-28T15:42:28.163Z,98194.27
2019-03-28T15:44:55.004Z,98200.59
2019-03-28T15:47:21.614Z,98203.89
2019-03-28T15:49:48.307Z,98201.25
2019-03-28T15:52:14.793Z,98208.03
2019-03-28T15:54:41.637Z,98209.65
2019-03-28T15:57:08.733Z,98206.42
2019-03-28T15:59:35.268Z,98215.41
2019-03-28T16:02:01.927Z,98215.77
2019-03-28T16:04:28.441Z,98217.72
2019-03-28T16:06:54.976Z,98222.63
2019-03-28T16:09:21.615Z,98232.75
2019-03-28T16:12:01.726Z,98233.33
2019-03-28T16:14:17.044Z,98230.91
2019-03-28T16:16:43.577Z,98240.67
2019-03-28T16:19:10.214Z,98235.50
2019-03-28T16:21:36.650Z,98231.94
2019-03-28T16:24:03.599Z,98236.82
2019-03-28T16:26:30.138Z,98236.56
2019-03-28T16:28:56.763Z,98234.69
2019-03-28T16:31:23.301Z,98231.46
2019-03-28T16:33:49.835Z,98230.17
2019-03-28T16:36:16.482Z,98230.75
2019-03-28T16:38:43.082Z,98243.26
2019-03-28T16:41:09.645Z,98243.55
2019-03-28T16:43:36.179Z,98240.06
2019-03-28T16:46:02.854Z,98240.61
2019-03-28T16:48:29.252Z,98247.94
2019-03-28T16:50:55.785Z,98249.05
2019-03-28T16:53:22.220Z,98255.31
2019-03-28T16:55:48.754Z,98250.47
2019-03-28T16:58:15.270Z,98258.93
2019-03-28T17:00:41.927Z,98261.38
2019-03-28T17:03:08.885Z,98260.86
2019-03-28T17:05:35.946Z,98263.32
2019-03-28T17:08:03.367Z,98270.39
2019-03-28T17:10:38.539Z,98272.07
2019-03-28T17:13:04.873Z,98272.36
2019-03-28T17:15:31.294Z,98271.03
2019-03-28T17:17:57.712Z,98273.20
2019-03-28T17:20:24.030Z,98278.37
2019-03-28T17:22:50.491Z,98278.11
2019-03-28T17:25:16.918Z,98278.95
2019-03-28T17:27:46.393Z,98283.02
2019-03-28T17:30:11.925Z,98277.36
2019-03-28T17:32:38.858Z,98280.91
2019-03-28T17:35:06.124Z,98283.65
2019-03-28T17:37:32.553Z,98290.46
2019-03-28T17:39:59.804Z,98291.59
2019-03-28T17:42:26.239Z,98294.05
2019-03-28T17:44:52.877Z,98291.09
2019-03-28T17:47:19.415Z,98295.71
2019-03-28T17:49:45.948Z,98301.69
2019-03-28T17:52:12.491Z,98311.23
2019-03-28T17:54:39.244Z,98314.78
2019-03-28T17:57:05.965Z,98315.88
2019-03-28T17:59:32.498Z,98322.14
2019-03-28T18:01:59.033Z,98325.95
2019-03-28T18:04:25.568Z,98325.45
2019-03-28T18:06:52.232Z,98325.20
2019-03-28T18:09:19.048Z,98322.22
2019-03-28T18:11:45.585Z,98330.91
2019-03-28T18:14:12.425Z,98325.02
2019-03-28T18:16:39.171Z,98326.67
2019-03-28T18:19:06.011Z,98326.75
2019-03-28T18:21:32.544Z,98326.31
2019-03-28T18:23:59.181Z,98325.55
2019-03-28T18:26:25.737Z,98325.36
2019-03-28T18:28:52.478Z,98319.48
2019-03-28T18:31:19.198Z,98322.83
2019-03-28T18:33:45.834Z,98328.08
2019-03-28T18:36:12.270Z,98329.80
2019-03-28T18:38:38.804Z,98335.58
2019-03-28T18:41:05.242Z,98337.33
2019-03-28T18:43:31.981Z,98340.66
2019-03-28T18:45:58.487Z,98336.41
2019-03-28T18:48:30.854Z,98337.83
2019-03-28T18:50:53.326Z,98343.58
2019-03-28T18:53:19.860Z,98347.13
2019-03-28T18:55:46.501Z,98343.11
2019-03-28T18:58:13.037Z,98345.84
2019-03-28T19:00:39.771Z,98344.81
2019-03-28T19:03:06.515Z,98353.75
2019-03-28T19:05:33.155Z,98350.51
2019-03-28T19:07:59.793Z,98351.36
2019-03-28T19:10:26.323Z,98360.55
2019-03-28T19:12:52.759Z,98367.02
2019-03-28T19:15:19.437Z,98368.89
2019-03-28T19:17:45.858Z,98365.33
2019-03-28T19:20:13.386Z,98369.91
2019-03-28T19:22:39.921Z,98374.47
2019-03-28T19:25:07.385Z,98376.90
2019-03-28T19:27:33.934Z,98380.14
2019-03-28T19:30:00.961Z,98380.41
2019-03-28T19:32:29.784Z,98382.83
2019-03-28T19:34:55.968Z,98382.80
2019-03-28T19:37:24.630Z,98383.06
2019-03-28T19:39:51.099Z,98394.16
2019-03-28T19:42:18.015Z,98401.73
2019-03-28T19:44:45.503Z,98402.00
2019-03-28T19:47:12.070Z,98404.72
2019-03-28T19:49:38.494Z,98400.66
2019-03-28T19:52:05.308Z,98403.36
2019-03-28T19:54:31.846Z,98404.45
2019-03-28T19:56:58.296Z,98407.97
2019-03-28T19:59:25.914Z,98407.16
2019-03-28T20:01:52.585Z,98410.14
2019-03-28T20:04:19.228Z,98407.20
2019-03-28T20:06:45.838Z,98403.98
2019-03-28T20:09:16.414Z,98408.63
2019-03-28T20:11:40.769Z,98408.09
2019-03-28T20:14:07.229Z,98412.73
2019-03-28T20:16:33.940Z,98415.45
2019-03-28T20:19:02.138Z,98407.61
2019-03-28T20:21:29.039Z,98405.75
2019-03-28T20:23:56.874Z,98412.52
2019-03-28T20:26:23.414Z,98420.64
2019-03-28T20:28:49.831Z,98420.69
2019-03-28T20:31:16.431Z,98418.02
2019-03-28T20:33:43.067Z,98415.61
2019-03-28T20:36:35.773Z,98424.81
2019-03-28T20:38:37.956Z,98421.91
2019-03-28T20:41:04.410Z,98417.89
2019-03-28T20:43:30.949Z,98425.73
2019-03-28T20:45:57.744Z,98432.27
2019-03-28T20:48:24.426Z,98430.41
2019-03-28T20:50:51.270Z,98428.00
2019-03-28T20:53:17.707Z,98423.41
2019-03-28T20:55:44.349Z,98435.33
2019-03-28T20:58:10.897Z,98438.56
2019-03-28T21:00:43.618Z,98436.41
2019-03-28T21:03:10.806Z,98430.75
2019-03-28T21:05:37.651Z,98441.31
2019-03-28T21:08:04.678Z,98436.72
2019-03-28T21:10:33.435Z,98441.88
2019-03-28T21:12:59.510Z,98452.41
2019-03-28T21:15:26.017Z,98448.08
2019-03-28T21:17:52.507Z,98450.78
2019-03-28T21:20:19.047Z,98458.89
2019-03-28T21:22:46.092Z,98463.23
2019-03-28T21:25:13.311Z,98462.95
2019-03-28T21:27:39.680Z,98462.70
2019-03-28T21:30:06.996Z,98458.91
2019-03-28T21:32:33.736Z,98467.84
2019-03-28T21:35:00.300Z,98465.94
2019-03-28T21:37:26.989Z,98464.86
2019-03-28T21:39:53.402Z,98465.16
2019-03-28T21:42:20.071Z,98464.33
2019-03-28T21:44:46.659Z,98465.13
2019-03-28T21:47:13.120Z,98465.69
2019-03-28T21:49:39.521Z,98461.09
2019-03-28T21:52:07.496Z,98466.77
2019-03-28T21:54:34.308Z,98468.94
2019-03-28T21:57:00.651Z,98465.15
2019-03-28T21:59:27.036Z,98471.36
2019-03-28T22:01:53.586Z,98462.72
2019-03-28T22:04:19.985Z,98463.27
2019-03-28T22:06:46.362Z,98464.34
2019-03-28T22:09:13.151Z,98474.86
2019-03-28T22:11:39.523Z,98476.73
2019-03-28T22:14:05.960Z,98472.42
2019-03-28T22:16:32.437Z,98470.80
2019-03-28T22:18:59.804Z,98468.91
2019-03-28T22:21:27.580Z,98470.78
2019-03-28T22:23:54.192Z,98479.41
2019-03-28T22:26:20.561Z,98482.91
2019-03-28T22:28:47.079Z,98487.23
2019-03-28T22:31:13.672Z,98483.42
2019-03-28T22:33:40.195Z,98493.11
2019-03-28T22:36:06.603Z,98489.57
2019-03-28T22:38:33.185Z,98492.54
2019-03-28T22:40:59.508Z,98490.66
2019-03-28T22:43:25.788Z,98492.78
2019-03-28T22:45:52.173Z,98493.34
2019-03-28T22:48:18.959Z,98495.78
2019-03-28T22:50:45.455Z,98492.55
2019-03-28T22:53:11.988Z,98495.24
2019-03-28T22:55:38.660Z,98504.41
2019-03-28T22:58:05.195Z,98494.70
2019-03-28T23:00:40.082Z,98493.59
2019-03-28T23:03:06.816Z,98493.05
2019-03-28T23:05:33.487Z,98498.40
2019-03-28T23:07:59.904Z,98494.88
2019-03-28T23:10:26.184Z,98497.03
2019-03-28T23:12:52.753Z,98498.08
2019-03-28T23:15:21.823Z,98499.41
2019-03-28T23:17:47.714Z,98505.85
2019-03-28T23:20:14.290Z,98507.17
2019-03-28T23:22:41.007Z,98507.18
2019-03-28T23:25:08.023Z,98499.89
2019-03-28T23:27:34.585Z,98503.09
2019-03-28T23:30:01.271Z,98500.66
2019-03-28T23:32:27.702Z,98506.84
2019-03-28T23:34:54.464Z,98505.49
2019-03-28T23:37:25.016Z,98506.56
2019-03-28T23:39:49.218Z,98505.75
2019-03-28T23:42:17.716Z,98502.23
2019-03-28T23:44:44.223Z,98503.86
2019-03-28T23:47:10.603Z,98505.21
2019-03-28T23:49:38.656Z,98505.50
2019-03-28T23:52:05.280Z,98512.73
2019-03-28T23:54:31.750Z,98509.97
2019-03-28T23:56:58.142Z,98514.45
2019-03-28T23:59:24.664Z,98507.89
